Time;durP1;ratioP1;P1;durP2;ratioP2;P2;SDS_P1;SDS_P2;PMS_P1;PMS_P2;Temp;Humidity;BMP_temperature;BMP_pressure;BME280_temperature;BME280_humidity;BME280_pressure;Samples;Min_cycle;Max_cycle;Signal;HPM_P1;HPM_P2
2022/05/08 00:00:20;;;;;;;;;;;8.80;99.90;;;;;;5054516;28;20383;-77
2022/05/08 00:02:47;;;;;;;;;;;8.80;99.90;;;;;;5050916;28;19970;-78
2022/05/08 00:05:13;;;;;;;;;;;8.80;99.90;;;;;;5070433;28;20287;-78
2022/05/08 00:07:40;;;;;;;;;;;8.80;99.90;;;;;;5054739;28;20275;-78
2022/05/08 00:10:06;;;;;;;;;;;8.70;99.90;;;;;;5052034;28;20393;-79
2022/05/08 00:12:33;;;;;;;;;;;8.80;99.90;;;;;;5057878;28;19924;-81
2022/05/08 00:15:00;;;;;;;;;;;8.80;99.90;;;;;;5063511;28;19924;-79
2022/05/08 00:17:26;;;;;;;;;;;8.80;99.90;;;;;;5064947;28;19934;-78
2022/05/08 00:19:53;;;;;;;;;;;8.80;99.90;;;;;;5079063;28;19931;-79
2022/05/08 00:22:19;;;;;;;;;;;8.80;99.90;;;;;;5058272;28;20008;-79
2022/05/08 00:24:46;;;;;;;;;;;8.80;99.90;;;;;;5060220;28;19924;-79
2022/05/08 00:27:12;;;;;;;;;;;8.80;99.90;;;;;;5065809;28;19924;-78
2022/05/08 00:29:39;;;;;;;;;;;8.80;99.90;;;;;;5057776;28;19924;-79
2022/05/08 00:32:05;;;;;;;;;;;8.80;99.90;;;;;;5064192;28;19935;-79
2022/05/08 00:34:32;;;;;;;;;;;8.80;99.90;;;;;;5055579;28;19925;-80
2022/05/08 00:36:59;;;;;;;;;;;8.80;99.90;;;;;;5066361;28;19943;-79
2022/05/08 00:39:26;;;;;;;;;;;8.80;99.90;;;;;;5066728;28;19946;-80
2022/05/08 00:41:52;;;;;;;;;;;8.80;99.90;;;;;;5085179;28;19978;-79
2022/05/08 00:44:19;;;;;;;;;;;8.70;99.90;;;;;;5057803;28;19924;-79
2022/05/08 00:46:45;;;;;;;;;;;8.70;99.90;;;;;;5064360;28;20402;-81
2022/05/08 00:49:12;;;;;;;;;;;8.70;99.90;;;;;;5080806;28;19977;-79
2022/05/08 00:51:39;;;;;;;;;;;8.60;99.90;;;;;;5062962;28;19924;-81
2022/05/08 00:54:05;;;;;;;;;;;8.60;99.90;;;;;;5064304;28;20011;-79
2022/05/08 00:56:32;;;;;;;;;;;8.60;99.90;;;;;;5068339;28;19924;-78
2022/05/08 00:58:59;;;;;;;;;;;8.60;99.90;;;;;;5053828;28;19986;-79
2022/05/08 01:01:25;;;;;;;;;;;8.60;99.90;;;;;;5056787;28;19930;-78
2022/05/08 01:03:52;;;;;;;;;;;8.60;99.90;;;;;;5081486;28;19924;-78
2022/05/08 01:06:19;;;;;;;;;;;8.60;99.90;;;;;;5073535;28;19924;-77
2022/05/08 01:08:45;;;;;;;;;;;8.50;99.90;;;;;;5062581;28;19928;-79
2022/05/08 01:11:12;;;;;;;;;;;8.50;99.90;;;;;;5076092;28;19932;-78
2022/05/08 01:13:38;;;;;;;;;;;8.50;99.90;;;;;;5067764;28;19924;-78
2022/05/08 01:16:05;;;;;;;;;;;8.50;99.90;;;;;;5077962;28;20008;-78
2022/05/08 01:18:32;;;;;;;;;;;8.40;99.90;;;;;;5073416;28;19930;-78
2022/05/08 01:20:58;;;;;;;;;;;8.40;99.90;;;;;;5078584;28;19928;-78
2022/05/08 01:23:25;;;;;;;;;;;8.40;99.90;;;;;;5072815;28;19924;-79
2022/05/08 01:25:51;;;;;;;;;;;8.30;99.90;;;;;;5070817;28;19924;-79
2022/05/08 01:28:18;;;;;;;;;;;8.30;99.90;;;;;;5079935;28;19932;-79
2022/05/08 01:30:44;;;;;;;;;;;8.30;99.90;;;;;;5070996;28;19928;-79
2022/05/08 01:33:11;;;;;;;;;;;8.30;99.90;;;;;;5055724;28;19928;-79
2022/05/08 01:35:37;;;;;;;;;;;8.30;99.90;;;;;;5063698;28;19930;-79
2022/05/08 01:38:04;;;;;;;;;;;8.20;99.90;;;;;;5059369;28;19947;-79
2022/05/08 01:40:31;;;;;;;;;;;8.20;99.90;;;;;;5064453;28;19986;-78
2022/05/08 01:42:57;;;;;;;;;;;8.10;99.90;;;;;;5056828;28;19982;-79
2022/05/08 01:45:24;;;;;;;;;;;8.10;99.90;;;;;;5070245;28;19929;-79
2022/05/08 01:50:34;;;;;;;;;;;8.10;99.90;;;;;;5055658;28;19971;-79
2022/05/08 01:53:01;;;;;;;;;;;8.20;99.90;;;;;;5074446;28;20016;-80
2022/05/08 01:55:28;;;;;;;;;;;8.20;99.90;;;;;;5066595;28;20375;-80
2022/05/08 01:57:54;;;;;;;;;;;8.20;99.90;;;;;;5078706;28;20035;-79
2022/05/08 02:00:21;;;;;;;;;;;8.20;99.90;;;;;;5075075;28;19924;-80
2022/05/08 02:02:48;;;;;;;;;;;8.10;99.90;;;;;;5062829;28;19928;-79
2022/05/08 02:05:15;;;;;;;;;;;8.10;99.90;;;;;;5076137;28;20374;-79
2022/05/08 02:07:42;;;;;;;;;;;8.10;99.90;;;;;;5064311;28;19946;-79
2022/05/08 02:10:08;;;;;;;;;;;8.20;99.90;;;;;;5076979;28;20030;-78
2022/05/08 02:12:35;;;;;;;;;;;8.20;99.90;;;;;;5077082;28;19931;-77
2022/05/08 02:15:01;;;;;;;;;;;8.20;99.90;;;;;;5057052;28;19925;-78
2022/05/08 02:17:28;;;;;;;;;;;8.20;99.90;;;;;;5056960;28;20371;-78
2022/05/08 02:19:54;;;;;;;;;;;8.20;99.90;;;;;;5064586;28;20010;-78
2022/05/08 02:22:21;;;;;;;;;;;8.20;99.90;;;;;;5074674;28;19928;-78
2022/05/08 02:24:48;;;;;;;;;;;8.30;99.90;;;;;;5068859;28;19925;-80
2022/05/08 02:27:14;;;;;;;;;;;8.20;99.90;;;;;;5068482;28;19924;-77
2022/05/08 02:29:41;;;;;;;;;;;8.20;99.90;;;;;;5069887;28;19925;-78
2022/05/08 02:32:07;;;;;;;;;;;8.20;99.90;;;;;;5074842;28;19947;-78
2022/05/08 02:34:34;;;;;;;;;;;8.30;99.90;;;;;;5077130;28;19940;-76
2022/05/08 02:37:00;;;;;;;;;;;8.20;99.90;;;;;;5071334;28;20008;-76
2022/05/08 02:39:27;;;;;;;;;;;8.20;99.90;;;;;;5073173;28;19928;-78
2022/05/08 02:41:53;;;;;;;;;;;8.20;99.90;;;;;;5059553;28;19932;-78
2022/05/08 02:44:20;;;;;;;;;;;8.20;99.90;;;;;;5073464;28;19924;-79
2022/05/08 02:46:47;;;;;;;;;;;8.30;99.90;;;;;;5086895;28;19932;-78
2022/05/08 02:49:13;;;;;;;;;;;8.30;99.90;;;;;;5069367;28;19939;-78
2022/05/08 02:51:40;;;;;;;;;;;8.30;99.90;;;;;;5069110;28;19931;-77
2022/05/08 02:54:06;;;;;;;;;;;8.30;99.90;;;;;;5075719;28;20299;-78
2022/05/08 02:59:17;;;;;;;;;;;8.20;99.90;;;;;;5055714;28;20426;-78
2022/05/08 03:01:44;;;;;;;;;;;8.20;99.90;;;;;;5080797;28;19931;-78
2022/05/08 03:04:10;;;;;;;;;;;8.30;99.90;;;;;;5063501;28;19920;-78
2022/05/08 03:06:38;;;;;;;;;;;8.30;99.90;;;;;;5070310;28;19928;-79
2022/05/08 03:09:04;;;;;;;;;;;8.20;99.90;;;;;;5055512;28;20330;-78
2022/05/08 03:11:32;;;;;;;;;;;8.20;99.90;;;;;;5060746;28;19931;-78
2022/05/08 03:13:59;;;;;;;;;;;8.20;99.90;;;;;;5072604;28;19989;-79
2022/05/08 03:16:27;;;;;;;;;;;8.20;99.90;;;;;;5069043;28;19924;-80
2022/05/08 03:18:55;;;;;;;;;;;8.20;99.90;;;;;;5070311;28;19925;-81
2022/05/08 03:21:21;;;;;;;;;;;8.20;99.90;;;;;;5063573;28;19925;-80
2022/05/08 03:23:48;;;;;;;;;;;8.20;99.90;;;;;;5066093;28;19924;-82
2022/05/08 03:26:15;;;;;;;;;;;8.20;99.90;;;;;;5064926;28;19928;-80
2022/05/08 03:28:41;;;;;;;;;;;8.10;99.90;;;;;;5074881;28;19969;-81
2022/05/08 03:31:08;;;;;;;;;;;8.10;99.90;;;;;;5061565;28;19931;-80
2022/05/08 03:33:34;;;;;;;;;;;8.10;99.90;;;;;;5060465;28;19924;-79
2022/05/08 03:36:01;;;;;;;;;;;8.10;99.90;;;;;;5055442;28;19947;-80
2022/05/08 03:38:28;;;;;;;;;;;8.00;99.90;;;;;;5055061;28;19924;-80
2022/05/08 03:40:54;;;;;;;;;;;8.10;99.90;;;;;;5064131;28;19924;-82
2022/05/08 03:43:21;;;;;;;;;;;8.10;99.90;;;;;;5057388;28;19925;-79
2022/05/08 03:45:49;;;;;;;;;;;8.00;99.90;;;;;;5055895;28;19931;-79
2022/05/08 03:48:15;;;;;;;;;;;7.90;99.90;;;;;;5067649;28;19928;-79
2022/05/08 03:50:42;;;;;;;;;;;7.90;99.90;;;;;;5057211;28;19939;-80
2022/05/08 03:53:09;;;;;;;;;;;7.90;99.90;;;;;;5071343;28;19935;-81
2022/05/08 03:55:35;;;;;;;;;;;7.80;99.90;;;;;;5083776;28;19931;-79
2022/05/08 03:58:02;;;;;;;;;;;7.80;99.90;;;;;;5059297;28;19928;-80
2022/05/08 04:00:28;;;;;;;;;;;7.80;99.90;;;;;;5064821;28;19925;-79
2022/05/08 04:02:55;;;;;;;;;;;7.80;99.90;;;;;;5055225;28;20084;-83
2022/05/08 04:05:22;;;;;;;;;;;7.80;99.90;;;;;;5080158;28;20436;-79
2022/05/08 04:07:48;;;;;;;;;;;7.80;99.90;;;;;;5067068;28;20291;-79
2022/05/08 04:10:15;;;;;;;;;;;7.80;99.90;;;;;;5064500;28;20386;-79
2022/05/08 04:12:42;;;;;;;;;;;7.80;99.90;;;;;;5057064;28;19925;-80
2022/05/08 04:16:15;;;;;;;;;;;7.80;99.90;;;;;;5064235;28;20358;-79
2022/05/08 04:17:55;;;;;;;;;;;7.90;99.90;;;;;;5060491;28;20359;-82
2022/05/08 04:20:22;;;;;;;;;;;7.90;99.90;;;;;;5073516;28;20005;-79
2022/05/08 04:25:32;;;;;;;;;;;8.00;99.90;;;;;;5061811;28;20303;-79
2022/05/08 04:27:59;;;;;;;;;;;8.10;99.90;;;;;;5059176;28;19932;-82
2022/05/08 04:30:25;;;;;;;;;;;8.10;99.90;;;;;;5063924;28;20352;-80
2022/05/08 04:32:52;;;;;;;;;;;8.10;99.90;;;;;;5059961;28;20015;-80
2022/05/08 04:35:18;;;;;;;;;;;8.20;99.90;;;;;;5064455;28;19920;-80
2022/05/08 04:37:47;;;;;;;;;;;8.30;99.90;;;;;;5064495;28;21511;-80
2022/05/08 04:40:13;;;;;;;;;;;8.40;99.90;;;;;;5065114;28;19974;-80
2022/05/08 04:42:40;;;;;;;;;;;8.50;99.90;;;;;;5056584;28;19932;-79
2022/05/08 04:45:07;;;;;;;;;;;8.60;99.90;;;;;;5072632;28;19974;-80
2022/05/08 04:47:34;;;;;;;;;;;8.70;99.90;;;;;;5055704;28;19935;-79
2022/05/08 04:50:00;;;;;;;;;;;8.80;99.90;;;;;;5062591;28;19924;-82
2022/05/08 04:52:27;;;;;;;;;;;8.90;99.90;;;;;;5055139;28;19929;-80
2022/05/08 04:54:53;;;;;;;;;;;8.90;99.90;;;;;;5053988;28;20432;-81
2022/05/08 04:57:20;;;;;;;;;;;8.90;99.90;;;;;;5053892;28;19925;-79
2022/05/08 04:59:47;;;;;;;;;;;8.80;99.90;;;;;;5059865;28;19928;-81
2022/05/08 05:02:14;;;;;;;;;;;8.80;99.90;;;;;;5070944;28;20034;-80
2022/05/08 05:04:41;;;;;;;;;;;8.90;99.90;;;;;;5053977;28;19978;-83
2022/05/08 05:07:08;;;;;;;;;;;9.00;99.90;;;;;;5062141;28;20328;-78
2022/05/08 05:09:35;;;;;;;;;;;9.10;99.90;;;;;;5064006;28;19924;-77
2022/05/08 05:12:02;;;;;;;;;;;9.30;99.90;;;;;;5062640;28;19931;-81
2022/05/08 05:14:28;;;;;;;;;;;9.50;99.90;;;;;;5054323;28;19931;-78
2022/05/08 05:16:55;;;;;;;;;;;9.60;99.90;;;;;;5054225;28;19932;-78
2022/05/08 05:19:21;;;;;;;;;;;9.70;99.90;;;;;;5064133;28;19939;-78
2022/05/08 05:21:48;;;;;;;;;;;9.80;99.90;;;;;;5053964;28;19928;-79
2022/05/08 05:24:14;;;;;;;;;;;9.90;99.90;;;;;;5071756;28;19932;-79
2022/05/08 05:26:41;;;;;;;;;;;10.00;99.90;;;;;;5061137;28;19931;-79
2022/05/08 05:29:08;;;;;;;;;;;10.10;99.90;;;;;;5066972;28;19974;-80
2022/05/08 05:31:35;;;;;;;;;;;10.20;99.90;;;;;;5071799;28;19946;-80
2022/05/08 05:34:01;;;;;;;;;;;10.30;99.90;;;;;;5082378;28;19947;-80
2022/05/08 05:36:28;;;;;;;;;;;10.30;99.90;;;;;;5070622;28;19960;-79
2022/05/08 05:38:55;;;;;;;;;;;10.30;99.90;;;;;;5069811;28;19924;-80
2022/05/08 05:41:21;;;;;;;;;;;10.30;99.90;;;;;;5063757;28;19924;-80
2022/05/08 05:43:48;;;;;;;;;;;10.40;99.90;;;;;;5065030;28;19925;-79
2022/05/08 05:48:59;;;;;;;;;;;10.60;99.90;;;;;;5065456;28;19924;-79
2022/05/08 05:51:25;;;;;;;;;;;10.80;99.90;;;;;;5090887;28;19920;-78
2022/05/08 05:53:52;;;;;;;;;;;10.90;99.90;;;;;;5068756;28;19935;-80
2022/05/08 05:56:18;;;;;;;;;;;11.10;99.90;;;;;;5078678;28;19932;-80
2022/05/08 05:58:45;;;;;;;;;;;11.20;99.90;;;;;;5073570;28;19924;-80
2022/05/08 06:01:11;;;;;;;;;;;11.10;99.90;;;;;;5081717;28;20018;-80
2022/05/08 06:03:38;;;;;;;;;;;11.00;99.90;;;;;;5078894;28;20282;-81
2022/05/08 06:06:05;;;;;;;;;;;10.90;99.90;;;;;;5072390;28;19924;-82
2022/05/08 06:08:31;;;;;;;;;;;10.90;99.90;;;;;;5078012;28;19928;-81
2022/05/08 06:10:58;;;;;;;;;;;10.80;99.90;;;;;;5074660;28;19928;-81
2022/05/08 06:13:24;;;;;;;;;;;10.90;99.90;;;;;;5092910;28;19935;-82
2022/05/08 06:15:51;;;;;;;;;;;10.90;99.90;;;;;;5080277;28;19924;-81
2022/05/08 06:18:18;;;;;;;;;;;10.90;99.90;;;;;;5078324;28;19935;-81
2022/05/08 06:20:44;;;;;;;;;;;10.80;99.90;;;;;;5081741;28;19979;-82
2022/05/08 06:23:11;;;;;;;;;;;10.90;99.90;;;;;;5091368;28;19924;-82
2022/05/08 06:25:41;;;;;;;;;;;10.90;99.90;;;;;;5079682;28;19935;-81
2022/05/08 06:28:08;;;;;;;;;;;10.90;99.90;;;;;;5075311;28;19928;-84
2022/05/08 06:30:34;;;;;;;;;;;10.80;99.90;;;;;;5082388;28;19931;-77
2022/05/08 06:33:01;;;;;;;;;;;10.80;99.90;;;;;;5076624;28;19938;-83
2022/05/08 06:35:27;;;;;;;;;;;10.90;99.90;;;;;;5091873;28;19928;-80
2022/05/08 06:37:54;;;;;;;;;;;10.90;99.90;;;;;;5081347;28;19924;-81
2022/05/08 06:40:21;;;;;;;;;;;10.90;99.90;;;;;;5072831;28;19979;-81
2022/05/08 06:42:48;;;;;;;;;;;11.00;99.90;;;;;;5086982;28;19928;-81
2022/05/08 06:45:14;;;;;;;;;;;11.10;99.90;;;;;;5081478;28;19931;-82
2022/05/08 06:47:41;;;;;;;;;;;11.20;99.90;;;;;;5091651;28;19927;-82
2022/05/08 06:50:08;;;;;;;;;;;11.30;99.90;;;;;;5091902;28;20374;-81
2022/05/08 06:52:34;;;;;;;;;;;11.30;99.90;;;;;;5090643;28;19977;-82
2022/05/08 06:55:01;;;;;;;;;;;11.30;99.90;;;;;;5081475;28;19931;-82
2022/05/08 06:57:28;;;;;;;;;;;11.30;99.90;;;;;;5076279;28;19928;-80
2022/05/08 07:02:38;;;;;;;;;;;11.40;99.90;;;;;;5081573;28;20055;-82
2022/05/08 07:05:05;;;;;;;;;;;11.50;99.90;;;;;;5090886;28;19935;-81
2022/05/08 07:07:32;;;;;;;;;;;11.60;99.90;;;;;;5077042;28;20446;-82
2022/05/08 07:09:58;;;;;;;;;;;11.80;99.90;;;;;;5075693;28;19924;-83
2022/05/08 07:12:25;;;;;;;;;;;11.90;99.90;;;;;;5077700;28;19924;-82
2022/05/08 07:14:53;;;;;;;;;;;11.90;99.90;;;;;;5086164;28;19951;-83
2022/05/08 07:17:21;;;;;;;;;;;12.00;99.90;;;;;;5085652;28;19971;-82
2022/05/08 07:19:47;;;;;;;;;;;12.00;99.90;;;;;;5058856;28;19976;-83
2022/05/08 07:22:14;;;;;;;;;;;12.00;99.90;;;;;;5052496;28;19928;-86
2022/05/08 07:24:41;;;;;;;;;;;12.20;99.90;;;;;;5074526;28;19924;-83
2022/05/08 07:27:10;;;;;;;;;;;12.30;99.90;;;;;;5067698;28;19928;-82
2022/05/08 07:29:37;;;;;;;;;;;12.20;99.90;;;;;;5070286;28;19928;-81
2022/05/08 07:32:04;;;;;;;;;;;12.30;99.90;;;;;;5076388;28;19923;-82
2022/05/08 07:37:14;;;;;;;;;;;12.40;99.90;;;;;;5061328;28;19924;-84
2022/05/08 07:39:41;;;;;;;;;;;12.50;99.90;;;;;;5076418;28;19924;-82
2022/05/08 07:42:08;;;;;;;;;;;12.50;99.50;;;;;;5067272;28;19940;-82
2022/05/08 07:44:34;;;;;;;;;;;12.60;99.90;;;;;;5063997;28;20805;-83
2022/05/08 07:47:01;;;;;;;;;;;12.60;99.90;;;;;;5065083;28;20387;-83
2022/05/08 07:49:27;;;;;;;;;;;12.80;99.20;;;;;;5055009;28;19979;-83
2022/05/08 07:51:54;;;;;;;;;;;12.90;99.60;;;;;;5074802;28;19924;-83
2022/05/08 07:54:20;;;;;;;;;;;13.10;99.20;;;;;;5069261;28;19924;-82
2022/05/08 07:56:47;;;;;;;;;;;13.20;98.20;;;;;;5085142;28;19932;-84
2022/05/08 07:59:14;;;;;;;;;;;13.30;97.60;;;;;;5066314;28;19928;-82
2022/05/08 08:01:40;;;;;;;;;;;13.20;97.60;;;;;;5057557;28;20372;-83
2022/05/08 08:04:08;;;;;;;;;;;13.30;98.20;;;;;;5053285;28;19946;-83
2022/05/08 08:06:35;;;;;;;;;;;13.40;97.90;;;;;;5055658;28;20421;-83
2022/05/08 08:09:02;;;;;;;;;;;13.60;97.60;;;;;;5051829;28;20367;-86
2022/05/08 08:11:28;;;;;;;;;;;13.70;96.70;;;;;;5064324;28;19928;-84
2022/05/08 08:13:55;;;;;;;;;;;13.80;97.30;;;;;;5064818;28;19929;-84
2022/05/08 08:16:22;;;;;;;;;;;13.90;96.60;;;;;;5071581;28;19989;-83
2022/05/08 08:18:49;;;;;;;;;;;13.60;97.20;;;;;;5063501;28;19928;-83
2022/05/08 08:21:16;;;;;;;;;;;13.90;96.30;;;;;;5063265;28;19925;-83
2022/05/08 08:23:42;;;;;;;;;;;13.90;95.70;;;;;;5055286;28;19923;-81
2022/05/08 08:26:09;;;;;;;;;;;14.00;95.70;;;;;;5060719;28;19924;-84
2022/05/08 08:28:36;;;;;;;;;;;13.90;95.50;;;;;;5087556;28;19924;-84
2022/05/08 08:31:02;;;;;;;;;;;13.70;96.10;;;;;;5060376;28;19946;-84
2022/05/08 08:33:30;;;;;;;;;;;14.10;95.30;;;;;;5043200;28;19929;-84
2022/05/08 08:35:56;;;;;;;;;;;14.10;95.50;;;;;;5064689;28;20434;-84
2022/05/08 08:38:23;;;;;;;;;;;14.40;95.90;;;;;;5060470;28;20012;-84
2022/05/08 08:40:50;;;;;;;;;;;14.20;94.90;;;;;;5060605;28;19935;-84
2022/05/08 08:43:16;;;;;;;;;;;14.20;94.30;;;;;;5070760;28;19928;-84
2022/05/08 08:48:27;;;;;;;;;;;14.20;92.50;;;;;;5070472;28;20271;-84
2022/05/08 08:50:54;;;;;;;;;;;14.20;92.80;;;;;;5083031;28;19935;-84
2022/05/08 08:53:21;;;;;;;;;;;14.30;92.70;;;;;;5069358;28;20349;-85
2022/05/08 08:55:47;;;;;;;;;;;14.30;94.60;;;;;;5089838;28;19928;-83
2022/05/08 08:58:14;;;;;;;;;;;14.40;91.80;;;;;;5074679;28;19973;-84
2022/05/08 09:00:40;;;;;;;;;;;14.40;90.70;;;;;;5077207;28;19925;-83
2022/05/08 09:03:07;;;;;;;;;;;14.30;92.50;;;;;;5073221;28;19928;-84
2022/05/08 09:05:34;;;;;;;;;;;14.40;93.50;;;;;;5092512;28;19928;-83
2022/05/08 09:08:00;;;;;;;;;;;14.50;94.00;;;;;;5074448;28;19928;-84
2022/05/08 09:10:28;;;;;;;;;;;14.80;94.00;;;;;;5058333;28;19944;-83
2022/05/08 09:12:55;;;;;;;;;;;15.00;92.30;;;;;;5063733;28;19924;-85
2022/05/08 09:15:22;;;;;;;;;;;15.00;91.00;;;;;;5074007;28;19931;-86
2022/05/08 09:17:48;;;;;;;;;;;14.70;90.20;;;;;;5076325;28;19939;-85
2022/05/08 09:20:15;;;;;;;;;;;14.40;91.30;;;;;;5086349;28;19958;-83
2022/05/08 09:22:42;;;;;;;;;;;14.40;92.00;;;;;;5085449;28;19920;-84
2022/05/08 09:25:08;;;;;;;;;;;14.40;91.20;;;;;;5070894;28;19982;-84
2022/05/08 09:27:35;;;;;;;;;;;14.40;91.40;;;;;;5091429;28;19935;-85
2022/05/08 09:30:02;;;;;;;;;;;14.30;92.00;;;;;;5074623;28;19932;-86
2022/05/08 09:32:29;;;;;;;;;;;14.40;90.90;;;;;;5060904;28;19932;-84
2022/05/08 09:34:57;;;;;;;;;;;14.40;90.50;;;;;;5074620;28;20326;-84
2022/05/08 09:37:23;;;;;;;;;;;14.40;90.80;;;;;;5058452;28;19931;-86
2022/05/08 09:39:50;;;;;;;;;;;14.30;91.50;;;;;;5091223;28;20005;-84
2022/05/08 09:42:16;;;;;;;;;;;14.30;90.40;;;;;;5060678;28;19971;-84
2022/05/08 09:44:43;;;;;;;;;;;14.20;90.70;;;;;;5075385;28;20494;-84
2022/05/08 09:47:10;;;;;;;;;;;14.30;90.30;;;;;;5078276;28;20011;-84
2022/05/08 09:49:36;;;;;;;;;;;14.20;90.90;;;;;;5062761;28;20045;-85
2022/05/08 09:52:03;;;;;;;;;;;14.40;91.10;;;;;;5059868;28;19933;-85
2022/05/08 09:54:29;;;;;;;;;;;14.50;90.60;;;;;;5067907;28;19938;-84
2022/05/08 09:56:56;;;;;;;;;;;14.50;90.90;;;;;;5069344;28;19925;-84
2022/05/08 09:59:22;;;;;;;;;;;14.50;91.20;;;;;;5066530;28;19928;-84
2022/05/08 10:01:49;;;;;;;;;;;14.60;90.70;;;;;;5092353;28;20005;-84
2022/05/08 10:04:16;;;;;;;;;;;14.80;90.50;;;;;;5073106;28;19932;-85
2022/05/08 10:06:42;;;;;;;;;;;14.70;90.80;;;;;;5070782;28;19967;-84
2022/05/08 10:14:38;;;;;;;;;;;15.00;90.80;;;;;;5074353;28;20387;-84
2022/05/08 10:17:04;;;;;;;;;;;15.00;87.20;;;;;;5072411;28;20291;-84
2022/05/08 10:19:31;;;;;;;;;;;15.00;86.30;;;;;;5076279;28;20000;-84
2022/05/08 10:21:59;;;;;;;;;;;15.00;87.80;;;;;;5074947;28;19930;-83
2022/05/08 10:24:26;;;;;;;;;;;15.00;91.10;;;;;;5071263;28;20035;-87
2022/05/08 10:26:52;;;;;;;;;;;15.20;90.70;;;;;;5072921;28;19939;-84
2022/05/08 10:29:19;;;;;;;;;;;15.50;85.00;;;;;;5075800;28;19928;-84
2022/05/08 10:31:46;;;;;;;;;;;15.30;85.00;;;;;;5071806;28;19951;-84
2022/05/08 10:34:12;;;;;;;;;;;15.20;87.40;;;;;;5076116;28;21234;-84
2022/05/08 10:36:39;;;;;;;;;;;15.20;89.30;;;;;;5074974;28;20332;-84
2022/05/08 10:39:06;;;;;;;;;;;15.20;90.40;;;;;;5073123;28;19935;-85
2022/05/08 10:41:33;;;;;;;;;;;15.30;83.50;;;;;;5071762;28;19956;-84
2022/05/08 10:43:59;;;;;;;;;;;15.30;88.10;;;;;;5075135;28;19932;-84
2022/05/08 10:46:26;;;;;;;;;;;15.20;88.60;;;;;;5074399;28;20494;-85
2022/05/08 10:48:54;;;;;;;;;;;15.20;87.70;;;;;;5074067;28;20028;-85
2022/05/08 10:51:20;;;;;;;;;;;15.00;88.20;;;;;;5059620;28;19928;-85
2022/05/08 10:53:47;;;;;;;;;;;15.10;90.20;;;;;;5060532;28;20379;-85
2022/05/08 10:56:14;;;;;;;;;;;15.20;87.10;;;;;;5085321;28;19935;-84
2022/05/08 10:58:41;;;;;;;;;;;15.20;84.10;;;;;;5067556;28;19924;-84
2022/05/08 11:01:07;;;;;;;;;;;15.10;82.80;;;;;;5070847;28;19942;-84
2022/05/08 11:03:36;;;;;;;;;;;15.00;85.90;;;;;;5072724;28;20385;-85
2022/05/08 11:06:02;;;;;;;;;;;15.00;85.90;;;;;;5089462;28;19939;-85
2022/05/08 11:08:32;;;;;;;;;;;15.20;82.70;;;;;;5065511;28;19939;-86
2022/05/08 11:10:59;;;;;;;;;;;15.30;80.90;;;;;;5066676;28;19935;-85
2022/05/08 11:13:27;;;;;;;;;;;15.30;81.60;;;;;;5089103;28;19931;-85
2022/05/08 11:15:53;;;;;;;;;;;15.20;81.00;;;;;;5064020;28;19928;-85
2022/05/08 11:18:20;;;;;;;;;;;15.10;81.00;;;;;;5053540;28;19939;-84
2022/05/08 11:20:48;;;;;;;;;;;15.00;82.90;;;;;;5067682;28;19971;-85
2022/05/08 11:23:14;;;;;;;;;;;15.10;86.00;;;;;;5065572;28;19928;-86
2022/05/08 11:25:41;;;;;;;;;;;15.30;86.20;;;;;;5069268;28;19924;-84
2022/05/08 11:28:08;;;;;;;;;;;15.40;84.40;;;;;;5064383;28;19954;-85
2022/05/08 11:30:35;;;;;;;;;;;15.50;87.80;;;;;;5077368;28;19954;-87
2022/05/08 11:38:30;;;;;;;;;;;15.40;86.20;;;;;;5065835;28;19928;-85
2022/05/08 11:40:57;;;;;;;;;;;15.40;84.70;;;;;;5080782;28;19924;-84
2022/05/08 11:43:24;;;;;;;;;;;15.50;84.50;;;;;;5073753;28;20343;-85
2022/05/08 11:45:50;;;;;;;;;;;15.40;87.60;;;;;;5066050;28;19935;-86
2022/05/08 11:48:17;;;;;;;;;;;15.40;85.20;;;;;;5064853;28;19928;-85
2022/05/08 11:50:43;;;;;;;;;;;15.50;81.80;;;;;;5067949;28;19935;-85
2022/05/08 11:53:10;;;;;;;;;;;15.40;83.20;;;;;;5058938;28;19935;-83
2022/05/08 11:55:36;;;;;;;;;;;15.60;86.10;;;;;;5075755;28;20454;-87
2022/05/08 11:58:04;;;;;;;;;;;15.50;84.00;;;;;;5080559;28;19932;-84
2022/05/08 12:00:31;;;;;;;;;;;15.40;88.20;;;;;;5076343;28;19964;-87
2022/05/08 12:02:57;;;;;;;;;;;15.50;84.10;;;;;;5058196;28;19924;-84
2022/05/08 12:05:24;;;;;;;;;;;15.50;85.10;;;;;;5062277;28;19935;-85
2022/05/08 12:07:51;;;;;;;;;;;15.50;84.40;;;;;;5064380;28;19928;-85
2022/05/08 12:10:18;;;;;;;;;;;15.40;87.30;;;;;;5051836;28;19925;-85
2022/05/08 12:12:44;;;;;;;;;;;15.30;88.40;;;;;;5066109;28;20230;-85
2022/05/08 12:15:11;;;;;;;;;;;15.40;85.60;;;;;;5058548;28;19935;-84
2022/05/08 12:17:37;;;;;;;;;;;15.40;85.60;;;;;;5052186;28;19951;-86
2022/05/08 12:20:04;;;;;;;;;;;15.40;88.00;;;;;;5057104;28;19934;-87
2022/05/08 12:22:30;;;;;;;;;;;15.50;86.70;;;;;;5063665;28;19931;-84
2022/05/08 12:24:58;;;;;;;;;;;15.50;85.60;;;;;;5058633;28;19939;-85
2022/05/08 12:27:24;;;;;;;;;;;15.40;88.20;;;;;;5059783;28;19928;-85
2022/05/08 12:29:53;;;;;;;;;;;15.60;86.10;;;;;;5080021;28;19928;-85
2022/05/08 12:32:20;;;;;;;;;;;15.60;85.80;;;;;;5060180;28;19932;-85
2022/05/08 12:34:46;;;;;;;;;;;15.60;89.50;;;;;;5056328;28;19928;-84
2022/05/08 12:37:13;;;;;;;;;;;15.60;90.80;;;;;;5055362;28;20015;-85
2022/05/08 12:39:39;;;;;;;;;;;15.50;88.80;;;;;;5060711;28;19939;-86
2022/05/08 12:42:06;;;;;;;;;;;15.50;86.40;;;;;;5066046;28;19924;-85
2022/05/08 12:44:33;;;;;;;;;;;15.40;87.90;;;;;;5052635;28;19925;-84
2022/05/08 12:47:00;;;;;;;;;;;15.40;86.40;;;;;;5061661;28;19942;-83
2022/05/08 12:49:26;;;;;;;;;;;15.50;87.80;;;;;;5055692;28;19936;-84
2022/05/08 12:51:53;;;;;;;;;;;15.50;85.90;;;;;;5063051;28;19935;-84
2022/05/08 12:54:20;;;;;;;;;;;15.50;85.40;;;;;;5076663;28;20020;-85
2022/05/08 12:56:46;;;;;;;;;;;15.40;86.50;;;;;;5070197;28;19930;-84
2022/05/08 13:01:57;;;;;;;;;;;15.50;87.90;;;;;;5071552;28;19940;-83
2022/05/08 13:04:24;;;;;;;;;;;15.50;86.50;;;;;;5054970;28;19939;-84
2022/05/08 13:06:50;;;;;;;;;;;15.50;88.30;;;;;;5078342;28;20295;-84
2022/05/08 13:09:17;;;;;;;;;;;15.50;88.70;;;;;;5055186;28;19935;-84
2022/05/08 13:11:43;;;;;;;;;;;15.50;87.90;;;;;;5060304;28;20442;-86
2022/05/08 13:14:10;;;;;;;;;;;15.40;87.40;;;;;;5052476;28;20034;-84
2022/05/08 13:16:37;;;;;;;;;;;15.50;86.60;;;;;;5057101;28;20383;-84
2022/05/08 13:19:03;;;;;;;;;;;15.40;88.20;;;;;;5059034;28;19932;-84
2022/05/08 13:21:30;;;;;;;;;;;15.50;86.50;;;;;;5081205;28;20321;-84
2022/05/08 13:23:56;;;;;;;;;;;15.40;87.00;;;;;;5061065;28;19959;-84
2022/05/08 13:26:23;;;;;;;;;;;15.40;87.20;;;;;;5055943;28;19929;-80
2022/05/08 13:28:49;;;;;;;;;;;15.40;90.10;;;;;;5078279;28;19940;-84
2022/05/08 13:31:16;;;;;;;;;;;15.30;89.00;;;;;;5084754;28;20020;-84
2022/05/08 13:33:43;;;;;;;;;;;15.40;89.30;;;;;;5068645;28;19924;-84
2022/05/08 13:36:09;;;;;;;;;;;15.50;90.30;;;;;;5078830;28;19924;-83
2022/05/08 13:38:36;;;;;;;;;;;15.40;90.50;;;;;;5061307;28;19935;-84
2022/05/08 13:41:02;;;;;;;;;;;15.40;89.60;;;;;;5053613;28;19935;-84
2022/05/08 13:43:29;;;;;;;;;;;15.40;87.50;;;;;;5069857;28;19931;-84
2022/05/08 13:45:55;;;;;;;;;;;15.40;88.40;;;;;;5067829;28;20015;-85
2022/05/08 13:48:22;;;;;;;;;;;15.40;87.80;;;;;;5086551;28;19928;-85
2022/05/08 13:50:49;;;;;;;;;;;15.30;89.90;;;;;;5067024;28;20363;-86
2022/05/08 13:53:15;;;;;;;;;;;15.30;90.60;;;;;;5070178;28;19924;-84
2022/05/08 13:55:43;;;;;;;;;;;15.40;88.70;;;;;;5063123;28;20020;-84
2022/05/08 13:58:10;;;;;;;;;;;15.30;87.00;;;;;;5062325;28;19932;-84
2022/05/08 14:00:37;;;;;;;;;;;15.30;88.10;;;;;;5071799;28;20433;-85
2022/05/08 14:03:05;;;;;;;;;;;15.30;89.70;;;;;;5074915;28;19937;-85
2022/05/08 14:05:32;;;;;;;;;;;15.30;89.80;;;;;;5081835;28;20023;-86
2022/05/08 14:07:59;;;;;;;;;;;15.20;88.80;;;;;;5072373;28;19924;-85
2022/05/08 14:10:26;;;;;;;;;;;15.20;89.70;;;;;;5060314;28;19963;-85
2022/05/08 14:12:52;;;;;;;;;;;15.30;90.50;;;;;;5083209;28;20515;-85
2022/05/08 14:15:21;;;;;;;;;;;15.30;90.80;;;;;;5074439;28;19931;-84
2022/05/08 14:17:47;;;;;;;;;;;15.20;90.10;;;;;;5070110;28;19934;-84
2022/05/08 14:20:14;;;;;;;;;;;15.20;89.30;;;;;;5070786;28;20275;-85
2022/05/08 14:22:41;;;;;;;;;;;15.20;88.60;;;;;;5059958;28;19928;-84
2022/05/08 14:25:07;;;;;;;;;;;15.10;90.30;;;;;;5056124;28;20022;-84
2022/05/08 14:27:34;;;;;;;;;;;15.10;89.60;;;;;;5068788;28;20043;-86
2022/05/08 14:30:00;;;;;;;;;;;15.20;89.90;;;;;;5062512;28;19940;-85
2022/05/08 14:37:55;;;;;;;;;;;15.30;90.00;;;;;;5052340;28;19931;-84
2022/05/08 14:40:24;;;;;;;;;;;15.30;88.70;;;;;;5083651;28;20355;-85
2022/05/08 14:42:51;;;;;;;;;;;15.20;90.40;;;;;;5080406;28;19961;-84
2022/05/08 14:45:17;;;;;;;;;;;15.20;90.10;;;;;;5080108;28;19928;-85
2022/05/08 14:47:44;;;;;;;;;;;15.20;91.10;;;;;;5066450;28;19978;-84
2022/05/08 14:50:11;;;;;;;;;;;15.20;89.40;;;;;;5088130;28;19928;-84
2022/05/08 14:52:37;;;;;;;;;;;15.10;88.70;;;;;;5082378;28;19925;-85
2022/05/08 14:55:04;;;;;;;;;;;15.00;90.10;;;;;;5076977;28;20402;-85